Time;durP1;ratioP1;P1;durP2;ratioP2;P2;SDS_P1;SDS_P2;PMS_P1;PMS_P2;Temp;Humidity;BMP_temperature;BMP_pressure;BME280_temperature;BME280_humidity;BME280_pressure;Samples;Min_cycle;Max_cycle;Signal;HPM_P1;HPM_P2
2021/01/03 00:00:17;;;;;;;19.88;14.35;;;;;;;;;;6065265;29;20052;-72
2021/01/03 00:03:18;;;;;;;19.10;14.30;;;;;;;;;;6073460;29;20123;-70
2021/01/03 00:06:20;;;;;;;18.55;14.50;;;;;;;;;;6072344;29;20049;-71
2021/01/03 00:09:22;;;;;;;17.67;15.10;;;;;;;;;;6072758;29;20053;-70
2021/01/03 00:12:24;;;;;;;17.02;13.75;;;;;;;;;;6071293;29;20143;-74
2021/01/03 00:15:25;;;;;;;16.83;13.27;;;;;;;;;;6071319;29;20112;-70
2021/01/03 00:18:26;;;;;;;18.95;14.45;;;;;;;;;;6074961;29;20072;-70
2021/01/03 00:21:28;;;;;;;18.50;13.93;;;;;;;;;;6070542;29;20084;-71
2021/01/03 00:24:29;;;;;;;17.00;13.25;;;;;;;;;;6080992;29;20056;-71
2021/01/03 00:27:30;;;;;;;17.63;13.40;;;;;;;;;;6078312;29;20045;-70
2021/01/03 00:30:31;;;;;;;18.08;13.95;;;;;;;;;;6083285;29;20140;-72
2021/01/03 00:33:32;;;;;;;17.23;13.43;;;;;;;;;;6089127;29;20384;-70
2021/01/03 00:36:34;;;;;;;18.48;13.50;;;;;;;;;;6079098;29;20108;-69
2021/01/03 00:39:35;;;;;;;18.50;14.10;;;;;;;;;;6076963;29;20044;-74
2021/01/03 00:42:36;;;;;;;19.15;14.75;;;;;;;;;;6037608;29;20110;-72
2021/01/03 00:45:38;;;;;;;18.33;15.05;;;;;;;;;;6071444;29;20048;-70
2021/01/03 00:48:39;;;;;;;19.15;15.32;;;;;;;;;;6081669;29;20160;-69
2021/01/03 00:51:40;;;;;;;17.42;14.70;;;;;;;;;;6080461;29;20057;-72
2021/01/03 00:54:41;;;;;;;18.83;15.70;;;;;;;;;;6082317;29;20415;-69
2021/01/03 00:57:43;;;;;;;17.77;14.10;;;;;;;;;;6077777;29;20048;-70
2021/01/03 01:00:44;;;;;;;18.00;14.63;;;;;;;;;;6074915;29;20048;-69
2021/01/03 01:03:45;;;;;;;20.77;15.57;;;;;;;;;;6071370;29;20044;-72
2021/01/03 01:06:47;;;;;;;16.50;13.43;;;;;;;;;;6077951;29;20057;-72
2021/01/03 01:09:48;;;;;;;19.77;15.00;;;;;;;;;;6078875;29;20565;-70
2021/01/03 01:12:49;;;;;;;18.48;14.25;;;;;;;;;;6080864;29;20487;-72
2021/01/03 01:15:51;;;;;;;20.30;15.98;;;;;;;;;;6073627;29;20040;-72
2021/01/03 01:18:52;;;;;;;21.17;16.55;;;;;;;;;;6079228;29;20053;-75
2021/01/03 01:21:54;;;;;;;20.85;16.65;;;;;;;;;;6076136;29;20057;-72
2021/01/03 01:24:55;;;;;;;21.05;17.48;;;;;;;;;;6077064;29;20059;-72
2021/01/03 01:27:56;;;;;;;24.85;18.60;;;;;;;;;;6073948;29;20160;-77
2021/01/03 01:30:57;;;;;;;21.60;18.38;;;;;;;;;;6081186;29;20052;-71
2021/01/03 01:33:58;;;;;;;23.48;18.83;;;;;;;;;;6072361;29;20071;-72
2021/01/03 01:37:00;;;;;;;21.55;17.25;;;;;;;;;;6070700;29;20056;-70
2021/01/03 01:40:04;;;;;;;20.30;15.98;;;;;;;;;;6075303;29;20044;-77
2021/01/03 01:43:07;;;;;;;20.08;15.07;;;;;;;;;;6073051;29;20131;-72
2021/01/03 01:46:09;;;;;;;20.50;15.98;;;;;;;;;;6072588;29;20640;-72
2021/01/03 01:49:13;;;;;;;20.42;16.83;;;;;;;;;;6073934;29;20061;-73
2021/01/03 01:52:18;;;;;;;21.13;17.60;;;;;;;;;;6071809;29;20147;-72
2021/01/03 01:55:21;;;;;;;20.17;15.68;;;;;;;;;;6072803;29;20654;-72
2021/01/03 01:58:28;;;;;;;22.65;15.70;;;;;;;;;;6075098;29;20076;-72
2021/01/03 02:01:36;;;;;;;18.75;15.90;;;;;;;;;;6069775;29;20063;-71
2021/01/03 02:04:41;;;;;;;19.38;16.15;;;;;;;;;;6077685;29;20052;-72
2021/01/03 02:07:48;;;;;;;94.13;57.47;;;;;;;;;;6074379;29;20757;-70
2021/01/03 02:10:50;;;;;;;159.55;76.75;;;;;;;;;;6073823;29;20079;-71
2021/01/03 02:13:54;;;;;;;90.00;53.58;;;;;;;;;;6073551;29;20083;-70
2021/01/03 02:16:55;;;;;;;54.67;33.33;;;;;;;;;;6078233;29;20088;-71
2021/01/03 02:19:58;;;;;;;28.85;21.25;;;;;;;;;;6075890;29;20052;-72
2021/01/03 02:23:03;;;;;;;53.88;32.17;;;;;;;;;;6078907;29;20518;-70
2021/01/03 02:26:05;;;;;;;19.38;14.45;;;;;;;;;;6073119;29;20144;-72
2021/01/03 02:29:10;;;;;;;18.17;14.45;;;;;;;;;;6075170;29;20058;-72
2021/01/03 02:32:12;;;;;;;17.52;14.23;;;;;;;;;;6083332;29;20491;-75
2021/01/03 02:35:15;;;;;;;15.80;13.63;;;;;;;;;;6082068;29;20084;-74
2021/01/03 02:38:22;;;;;;;15.10;13.50;;;;;;;;;;6082346;29;20079;-71
2021/01/03 02:41:24;;;;;;;16.02;12.75;;;;;;;;;;6078188;29;20156;-72
2021/01/03 02:44:25;;;;;;;15.70;12.60;;;;;;;;;;6078578;29;20063;-74
2021/01/03 02:47:29;;;;;;;15.13;12.35;;;;;;;;;;6075034;29;20056;-73
2021/01/03 02:50:30;;;;;;;13.80;11.57;;;;;;;;;;6082132;29;20143;-70
2021/01/03 02:53:31;;;;;;;13.77;10.57;;;;;;;;;;6082431;29;20047;-71
2021/01/03 02:56:34;;;;;;;13.30;11.23;;;;;;;;;;6078280;29;20064;-72
2021/01/03 02:59:35;;;;;;;16.13;12.77;;;;;;;;;;6079871;29;20064;-71
2021/01/03 03:02:36;;;;;;;16.58;13.02;;;;;;;;;;6076046;29;20638;-73
2021/01/03 03:05:37;;;;;;;16.27;14.40;;;;;;;;;;6079092;29;20119;-71
2021/01/03 03:08:38;;;;;;;15.95;13.13;;;;;;;;;;6079422;29;20053;-71
2021/01/03 03:11:45;;;;;;;17.50;14.68;;;;;;;;;;6085354;29;20404;-71
2021/01/03 03:14:46;;;;;;;17.40;14.63;;;;;;;;;;6082320;29;20448;-72
2021/01/03 03:17:47;;;;;;;18.50;15.07;;;;;;;;;;6081583;29;20135;-71
2021/01/03 03:20:48;;;;;;;17.50;14.50;;;;;;;;;;6084542;29;20047;-72
2021/01/03 03:23:49;;;;;;;16.55;13.95;;;;;;;;;;6079619;29;20174;-72
2021/01/03 03:26:52;;;;;;;15.98;14.25;;;;;;;;;;6080961;29;20052;-70
2021/01/03 03:29:53;;;;;;;17.38;15.05;;;;;;;;;;6076921;29;20055;-70
2021/01/03 03:32:54;;;;;;;17.73;15.00;;;;;;;;;;6077009;29;20059;-70
2021/01/03 03:35:55;;;;;;;19.83;16.05;;;;;;;;;;6076700;29;20135;-70
2021/01/03 03:38:56;;;;;;;17.23;15.32;;;;;;;;;;6080571;29;20567;-71
2021/01/03 03:41:59;;;;;;;19.50;15.95;;;;;;;;;;6075362;29;20065;-71
2021/01/03 03:45:00;;;;;;;18.15;15.57;;;;;;;;;;6082046;29;20049;-72
2021/01/03 03:48:01;;;;;;;17.92;15.43;;;;;;;;;;6082754;29;20116;-71
2021/01/03 03:51:02;;;;;;;21.08;16.50;;;;;;;;;;6085761;29;20055;-71
2021/01/03 03:54:04;;;;;;;20.02;17.65;;;;;;;;;;6083819;29;20044;-72
2021/01/03 03:57:06;;;;;;;20.25;17.23;;;;;;;;;;6082009;29;20519;-73
2021/01/03 04:00:09;;;;;;;21.98;17.42;;;;;;;;;;6076877;29;20132;-70
2021/01/03 04:03:10;;;;;;;22.23;17.98;;;;;;;;;;6075355;29;20058;-71
2021/01/03 04:06:11;;;;;;;26.40;19.17;;;;;;;;;;6077959;29;20052;-74
2021/01/03 04:09:13;;;;;;;25.58;19.48;;;;;;;;;;6071541;29;20071;-73
2021/01/03 04:12:14;;;;;;;25.67;20.25;;;;;;;;;;6073088;29;20052;-73
2021/01/03 04:15:17;;;;;;;27.65;19.88;;;;;;;;;;6072777;29;20072;-72
2021/01/03 04:18:18;;;;;;;32.78;21.77;;;;;;;;;;6071414;29;20451;-73
2021/01/03 04:21:19;;;;;;;34.13;21.58;;;;;;;;;;6072093;29;20555;-72
2021/01/03 04:24:21;;;;;;;37.75;22.92;;;;;;;;;;6078392;29;20471;-72
2021/01/03 04:27:23;;;;;;;35.08;22.90;;;;;;;;;;6071692;29;20607;-71
2021/01/03 04:30:25;;;;;;;38.80;23.08;;;;;;;;;;6072500;29;20135;-71
2021/01/03 04:33:26;;;;;;;41.40;22.92;;;;;;;;;;6075087;29;20505;-72
2021/01/03 04:36:27;;;;;;;46.67;23.55;;;;;;;;;;6072981;29;20131;-72
2021/01/03 04:39:29;;;;;;;48.13;25.40;;;;;;;;;;6073531;29;20052;-72
2021/01/03 04:42:34;;;;;;;52.10;26.33;;;;;;;;;;6075804;29;20132;-72
2021/01/03 04:45:37;;;;;;;45.03;24.00;;;;;;;;;;6075405;29;20068;-72
2021/01/03 04:48:39;;;;;;;43.28;23.83;;;;;;;;;;6071263;29;20123;-72
2021/01/03 04:51:56;;;;;;;46.40;22.83;;;;;;;;;;6068112;29;20066;-72
2021/01/03 04:55:12;;;;;;;58.75;23.75;;;;;;;;;;6070037;29;20103;-72
2021/01/03 04:58:30;;;;;;;43.85;23.13;;;;;;;;;;6071752;29;20044;-71
2021/01/03 05:01:44;;;;;;;49.60;22.67;;;;;;;;;;6072593;29;20049;-71
2021/01/03 05:05:02;;;;;;;47.22;22.67;;;;;;;;;;6075049;29;20095;-72
2021/01/03 05:08:16;;;;;;;46.42;21.70;;;;;;;;;;6077244;29;20533;-74
2021/01/03 05:11:22;;;;;;;50.00;22.85;;;;;;;;;;6080464;29;20501;-71
2021/01/03 05:14:30;;;;;;;40.33;21.20;;;;;;;;;;6081503;29;20101;-70
2021/01/03 05:17:31;;;;;;;40.95;21.17;;;;;;;;;;6081026;29;20547;-71
2021/01/03 05:20:32;;;;;;;39.13;22.38;;;;;;;;;;6080621;29;20131;-72
2021/01/03 05:23:35;;;;;;;52.40;23.60;;;;;;;;;;6077007;29;20048;-71
2021/01/03 05:26:38;;;;;;;42.40;22.58;;;;;;;;;;6074163;29;20056;-72
2021/01/03 05:29:40;;;;;;;40.67;21.42;;;;;;;;;;6071943;29;20471;-72
2021/01/03 05:32:41;;;;;;;39.63;20.85;;;;;;;;;;6072329;29;20554;-73
2021/01/03 05:35:43;;;;;;;48.42;22.45;;;;;;;;;;6072552;29;20143;-74
2021/01/03 05:38:44;;;;;;;46.42;21.92;;;;;;;;;;6072118;29;20085;-72
2021/01/03 05:42:04;;;;;;;41.65;21.40;;;;;;;;;;6072253;29;20048;-71
2021/01/03 05:45:09;;;;;;;38.67;20.90;;;;;;;;;;6070520;29;20044;-71
2021/01/03 05:48:20;;;;;;;42.58;20.70;;;;;;;;;;6075340;29;20482;-72
2021/01/03 05:51:34;;;;;;;37.30;21.85;;;;;;;;;;6073727;29;20048;-72
2021/01/03 05:54:37;;;;;;;37.83;20.73;;;;;;;;;;6075606;29;20136;-72
2021/01/03 05:57:38;;;;;;;37.30;21.33;;;;;;;;;;6078967;29;20538;-73
2021/01/03 06:00:40;;;;;;;39.33;21.27;;;;;;;;;;6077187;29;20089;-72
2021/01/03 06:03:41;;;;;;;39.72;21.73;;;;;;;;;;6078174;29;20048;-71
2021/01/03 06:07:15;;;;;;;47.83;21.88;;;;;;;;;;6078086;29;20063;-71
2021/01/03 06:10:30;;;;;;;39.72;20.90;;;;;;;;;;6073379;29;20087;-71
2021/01/03 06:13:31;;;;;;;35.42;19.23;;;;;;;;;;6073406;29;20168;-72
2021/01/03 06:16:38;;;;;;;44.72;21.27;;;;;;;;;;6072768;29;20044;-71
2021/01/03 06:19:44;;;;;;;38.15;21.45;;;;;;;;;;6072403;29;20057;-72
2021/01/03 06:22:47;;;;;;;44.47;22.08;;;;;;;;;;6071876;29;20052;-76
2021/01/03 06:25:54;;;;;;;42.38;21.58;;;;;;;;;;6074920;29;20076;-71
2021/01/03 06:28:56;;;;;;;43.83;22.25;;;;;;;;;;6074630;29;20139;-71
2021/01/03 06:32:16;;;;;;;54.72;21.33;;;;;;;;;;6067601;29;20051;-72
2021/01/03 06:35:27;;;;;;;31.60;19.08;;;;;;;;;;6065487;29;20140;-73
2021/01/03 06:38:43;;;;;;;43.20;20.10;;;;;;;;;;6060424;29;20057;-71
2021/01/03 06:41:49;;;;;;;39.15;19.70;;;;;;;;;;6071253;29;20052;-72
2021/01/03 06:45:27;;;;;;;43.08;19.17;;;;;;;;;;6065379;29;20052;-75
2021/01/03 06:48:52;;;;;;;38.22;20.05;;;;;;;;;;6067874;29;20049;-72
2021/01/03 06:52:16;;;;;;;40.88;20.92;;;;;;;;;;6062861;29;20127;-71
2021/01/03 06:55:41;;;;;;;42.63;21.55;;;;;;;;;;6066234;29;20040;-72
2021/01/03 06:59:03;;;;;;;39.03;20.20;;;;;;;;;;6067564;29;20127;-71
2021/01/03 07:02:04;;;;;;;40.22;20.30;;;;;;;;;;6068183;29;20048;-72
2021/01/03 07:05:09;;;;;;;35.08;19.10;;;;;;;;;;6066379;29;20064;-72
2021/01/03 07:08:10;;;;;;;27.13;17.08;;;;;;;;;;6073257;29;20044;-72
2021/01/03 07:11:36;;;;;;;36.38;18.10;;;;;;;;;;6076107;29;20076;-72
2021/01/03 07:14:56;;;;;;;34.83;18.95;;;;;;;;;;6072301;29;20047;-72
2021/01/03 07:18:27;;;;;;;28.77;16.60;;;;;;;;;;6074187;29;20109;-73
2021/01/03 07:21:37;;;;;;;29.65;18.17;;;;;;;;;;6071300;29;20104;-71
2021/01/03 07:25:07;;;;;;;35.58;20.45;;;;;;;;;;6071567;29;20070;-72
2021/01/03 07:28:13;;;;;;;30.75;19.55;;;;;;;;;;6071675;29;20108;-73
2021/01/03 07:31:35;;;;;;;42.55;24.10;;;;;;;;;;6072778;29;20067;-72
2021/01/03 07:34:36;;;;;;;37.67;19.92;;;;;;;;;;6076532;29;20131;-72
2021/01/03 07:37:38;;;;;;;32.35;18.90;;;;;;;;;;6075931;29;20052;-72
2021/01/03 07:40:51;;;;;;;31.63;18.52;;;;;;;;;;6078477;29;20057;-71
2021/01/03 07:43:58;;;;;;;29.45;17.75;;;;;;;;;;6078208;29;20048;-71
2021/01/03 07:47:00;;;;;;;31.83;17.27;;;;;;;;;;6071670;29;20487;-71
2021/01/03 07:50:20;;;;;;;28.90;16.35;;;;;;;;;;6072049;29;22000;-72
2021/01/03 07:53:29;;;;;;;24.73;15.85;;;;;;;;;;6076273;29;20057;-72
2021/01/03 07:56:31;;;;;;;28.80;16.88;;;;;;;;;;6074568;29;20780;-71
2021/01/03 07:59:32;;;;;;;25.13;15.93;;;;;;;;;;6073309;29;20289;-71
2021/01/03 08:02:35;;;;;;;26.08;15.30;;;;;;;;;;6067910;29;20069;-71
2021/01/03 08:05:38;;;;;;;25.25;14.77;;;;;;;;;;6067868;29;20738;-73
2021/01/03 08:08:40;;;;;;;22.60;14.48;;;;;;;;;;6069834;29;20051;-72
2021/01/03 08:11:42;;;;;;;22.00;13.48;;;;;;;;;;6069899;29;20595;-73
2021/01/03 08:14:45;;;;;;;22.70;14.07;;;;;;;;;;6071077;29;20048;-73
2021/01/03 08:17:46;;;;;;;21.10;13.32;;;;;;;;;;6071535;29;20496;-73
2021/01/03 08:20:49;;;;;;;21.17;12.80;;;;;;;;;;6075569;29;20500;-72
2021/01/03 08:23:50;;;;;;;18.95;12.48;;;;;;;;;;6063811;29;20135;-72
2021/01/03 08:26:55;;;;;;;19.00;12.90;;;;;;;;;;6073520;29;20096;-72
2021/01/03 08:30:00;;;;;;;19.60;13.02;;;;;;;;;;6075438;29;20062;-72
2021/01/03 08:33:06;;;;;;;19.17;12.25;;;;;;;;;;6072294;29;20444;-73
2021/01/03 08:36:16;;;;;;;19.42;11.73;;;;;;;;;;6071851;29;20068;-74
2021/01/03 08:39:17;;;;;;;18.90;12.32;;;;;;;;;;6077752;29;20181;-73
2021/01/03 08:42:22;;;;;;;18.83;12.02;;;;;;;;;;6076637;29;20173;-73
2021/01/03 08:45:28;;;;;;;18.02;11.98;;;;;;;;;;6063049;29;20147;-74
2021/01/03 08:48:30;;;;;;;16.13;10.85;;;;;;;;;;6068597;29;20173;-72
2021/01/03 08:51:31;;;;;;;14.27;10.20;;;;;;;;;;6067505;29;20048;-74
2021/01/03 08:54:32;;;;;;;16.48;11.02;;;;;;;;;;6071428;29;20063;-72
2021/01/03 08:57:34;;;;;;;13.95;9.63;;;;;;;;;;6066226;29;20064;-72
2021/01/03 09:00:37;;;;;;;15.00;9.70;;;;;;;;;;6069810;29;20774;-73
2021/01/03 09:03:38;;;;;;;14.05;10.07;;;;;;;;;;6068574;29;20465;-72
2021/01/03 09:06:40;;;;;;;13.90;9.75;;;;;;;;;;6069325;29;20546;-72
2021/01/03 09:09:46;;;;;;;13.13;9.10;;;;;;;;;;6070243;29;20151;-72
2021/01/03 09:12:48;;;;;;;14.15;9.57;;;;;;;;;;6074162;29;20168;-72
2021/01/03 09:16:00;;;;;;;13.85;8.73;;;;;;;;;;6068882;29;20060;-72
2021/01/03 09:19:09;;;;;;;11.45;8.40;;;;;;;;;;6072421;29;20052;-73
2021/01/03 09:22:11;;;;;;;13.13;9.13;;;;;;;;;;6064135;29;20088;-72
2021/01/03 09:25:18;;;;;;;10.95;7.80;;;;;;;;;;6070327;29;20770;-72
2021/01/03 09:28:28;;;;;;;13.05;7.75;;;;;;;;;;6065589;29;20133;-72
2021/01/03 09:31:29;;;;;;;10.55;7.82;;;;;;;;;;6075287;29;20060;-72
2021/01/03 09:34:40;;;;;;;11.63;8.00;;;;;;;;;;6072397;29;20085;-72
2021/01/03 09:37:41;;;;;;;9.35;7.28;;;;;;;;;;6073684;29;20049;-72
2021/01/03 09:40:49;;;;;;;8.90;5.97;;;;;;;;;;6072324;29;20083;-72
2021/01/03 09:43:58;;;;;;;7.68;6.28;;;;;;;;;;6075024;29;20119;-69
2021/01/03 09:47:02;;;;;;;9.00;6.00;;;;;;;;;;6074734;29;20067;-70
2021/01/03 09:50:14;;;;;;;7.05;5.07;;;;;;;;;;6076099;29;20479;-72
2021/01/03 09:53:26;;;;;;;10.15;5.38;;;;;;;;;;6076363;29;20143;-72
2021/01/03 09:56:31;;;;;;;8.40;4.50;;;;;;;;;;6069538;29;20140;-72
2021/01/03 09:59:33;;;;;;;5.43;4.07;;;;;;;;;;6063610;29;20383;-71
2021/01/03 10:02:34;;;;;;;6.07;4.07;;;;;;;;;;6071432;29;20139;-70
2021/01/03 10:05:39;;;;;;;5.88;3.70;;;;;;;;;;6068598;29;20053;-72
2021/01/03 10:08:40;;;;;;;3.70;3.08;;;;;;;;;;6065553;29;20084;-71
2021/01/03 10:11:42;;;;;;;5.43;3.45;;;;;;;;;;5725978;29;9999726;-70
2021/01/03 10:14:44;;;;;;;5.75;3.60;;;;;;;;;;6067788;29;20123;-71
2021/01/03 10:17:56;;;;;;;4.22;3.45;;;;;;;;;;6068267;29;20055;-74
2021/01/03 10:20:57;;;;;;;4.78;3.40;;;;;;;;;;6071878;29;20048;-76
2021/01/03 10:24:00;;;;;;;5.68;3.97;;;;;;;;;;6064961;29;20479;-76
2021/01/03 10:27:16;;;;;;;5.50;4.10;;;;;;;;;;6056432;29;20099;-74
2021/01/03 10:30:19;;;;;;;6.75;4.07;;;;;;;;;;6068139;29;20049;-75
2021/01/03 10:33:21;;;;;;;7.60;4.22;;;;;;;;;;5391334;29;10000332;-73
2021/01/03 10:36:23;;;;;;;5.60;3.75;;;;;;;;;;6068582;29;20051;-74
2021/01/03 10:39:26;;;;;;;5.20;3.20;;;;;;;;;;6069572;29;20060;-74
2021/01/03 10:42:27;;;;;;;5.43;3.58;;;;;;;;;;6072529;29;20044;-71
2021/01/03 10:45:29;;;;;;;4.88;3.70;;;;;;;;;;6071827;29;20128;-74
2021/01/03 10:48:30;;;;;;;4.60;3.15;;;;;;;;;;6078353;29;20087;-71
2021/01/03 10:51:33;;;;;;;4.53;3.15;;;;;;;;;;6074451;29;20151;-73
2021/01/03 10:54:34;;;;;;;6.38;3.20;;;;;;;;;;6072901;29;20136;-71
2021/01/03 10:57:35;;;;;;;5.55;3.13;;;;;;;;;;6069491;29;20087;-73
2021/01/03 11:00:37;;;;;;;8.23;2.92;;;;;;;;;;6072154;29;20056;-73
2021/01/03 11:03:40;;;;;;;4.63;2.78;;;;;;;;;;6070048;29;20139;-70
2021/01/03 11:06:44;;;;;;;5.13;2.88;;;;;;;;;;6070066;29;20135;-70
2021/01/03 11:09:45;;;;;;;3.45;2.60;;;;;;;;;;6069415;29;20171;-70
2021/01/03 11:12:46;;;;;;;4.05;2.47;;;;;;;;;;6071602;29;20135;-70
2021/01/03 11:15:49;;;;;;;4.80;3.10;;;;;;;;;;6070322;29;20056;-71
2021/01/03 11:18:50;;;;;;;3.50;2.30;;;;;;;;;;6072726;29;20067;-72
2021/01/03 11:21:54;;;;;;;5.32;2.72;;;;;;;;;;6073999;29;20127;-70
2021/01/03 11:24:55;;;;;;;;;;;;;;;;;;6075529;29;20101;-72
2021/01/03 11:27:56;;;;;;;7.22;2.60;;;;;;;;;;6073218;29;19927;-72
2021/01/03 11:30:58;;;;;;;3.53;2.60;;;;;;;;;;6074223;29;20176;-69
2021/01/03 11:33:59;;;;;;;4.95;2.55;;;;;;;;;;6071761;29;20135;-71
2021/01/03 11:37:02;;;;;;;5.53;2.65;;;;;;;;;;6073548;29;20045;-70
2021/01/03 11:40:06;;;;;;;4.50;2.80;;;;;;;;;;6065105;29;20476;-72
2021/01/03 11:43:07;;;;;;;6.13;2.80;;;;;;;;;;6074075;29;20621;-71
2021/01/03 11:46:09;;;;;;;4.50;2.35;;;;;;;;;;6067338;29;20045;-70
2021/01/03 11:49:10;;;;;;;3.55;2.50;;;;;;;;;;6069591;29;20072;-70
2021/01/03 11:52:11;;;;;;;3.80;2.40;;;;;;;;;;6068166;29;20543;-71
2021/01/03 11:55:14;;;;;;;3.17;2.05;;;;;;;;;;6072868;29;20148;-71
2021/01/03 11:58:15;;;;;;;4.13;2.30;;;;;;;;;;6068655;29;20395;-70
2021/01/03 12:01:18;;;;;;;3.30;2.32;;;;;;;;;;5718471;29;10000951;-70
2021/01/03 12:04:20;;;;;;;4.50;2.30;;;;;;;;;;6065177;29;20060;-70
2021/01/03 12:07:21;;;;;;;4.30;2.20;;;;;;;;;;6074659;29;20174;-70
2021/01/03 12:10:22;;;;;;;4.20;2.30;;;;;;;;;;6067770;29;20123;-71
2021/01/03 12:13:23;;;;;;;2.97;2.05;;;;;;;;;;6067525;29;20119;-70
2021/01/03 12:16:28;;;;;;;5.03;2.60;;;;;;;;;;6068578;29;20184;-69
2021/01/03 12:19:29;;;;;;;2.33;2.08;;;;;;;;;;6062345;29;20056;-71
2021/01/03 12:22:32;;;;;;;4.47;2.13;;;;;;;;;;6070855;29;20148;-70
2021/01/03 12:25:33;;;;;;;4.35;2.15;;;;;;;;;;5394387;29;9999944;-74
2021/01/03 12:28:34;;;;;;;3.50;2.25;;;;;;;;;;6070833;29;20068;-71
2021/01/03 12:31:38;;;;;;;3.35;2.08;;;;;;;;;;6073370;29;20052;-71
2021/01/03 12:34:39;;;;;;;3.60;2.05;;;;;;;;;;6070187;29;20060;-70
2021/01/03 12:37:40;;;;;;;5.82;2.90;;;;;;;;;;6062945;29;20054;-70
2021/01/03 12:40:41;;;;;;;4.05;2.28;;;;;;;;;;6056829;29;20052;-74
2021/01/03 12:43:42;;;;;;;3.75;2.30;;;;;;;;;;6074932;29;20049;-70
2021/01/03 12:46:44;;;;;;;5.05;2.22;;;;;;;;;;6071630;29;20484;-72
2021/01/03 12:49:45;;;;;;;5.97;2.65;;;;;;;;;;6071970;29;20049;-71
2021/01/03 12:52:46;;;;;;;3.30;2.30;;;;;;;;;;6072632;29;20049;-70
2021/01/03 12:55:48;;;;;;;3.35;2.10;;;;;;;;;;6074301;29;20100;-71
2021/01/03 12:58:49;;;;;;;3.40;2.05;;;;;;;;;;6071995;29;20080;-71
2021/01/03 13:01:51;;;;;;;4.88;2.05;;;;;;;;;;6071153;29;20049;-69
2021/01/03 13:04:52;;;;;;;4.95;2.03;;;;;;;;;;6074202;29;20056;-75
2021/01/03 13:07:53;;;;;;;5.13;2.03;;;;;;;;;;6073236;29;20100;-71
2021/01/03 13:10:54;;;;;;;3.05;1.92;;;;;;;;;;6074019;29;20141;-71
2021/01/03 13:13:55;;;;;;;12.23;1.83;;;;;;;;;;6074416;29;20048;-75
2021/01/03 13:16:57;;;;;;;3.60;1.90;;;;;;;;;;6077882;29;20049;-70
2021/01/03 13:19:58;;;;;;;3.25;1.90;;;;;;;;;;6074992;29;20055;-70
2021/01/03 13:22:59;;;;;;;2.53;1.50;;;;;;;;;;6074935;29;20508;-71
2021/01/03 13:26:01;;;;;;;3.25;2.22;;;;;;;;;;6074670;29;20140;-71
2021/01/03 13:29:02;;;;;;;3.55;1.83;;;;;;;;;;6071569;29;20059;-71
2021/01/03 13:32:04;;;;;;;3.85;1.65;;;;;;;;;;6076043;29;20060;-77
2021/01/03 13:35:07;;;;;;;4.63;1.70;;;;;;;;;;6074820;29;20055;-70
2021/01/03 13:38:08;;;;;;;5.60;2.00;;;;;;;;;;6073298;29;20604;-70
2021/01/03 13:41:10;;;;;;;3.38;1.50;;;;;;;;;;6071814;29;20059;-71
2021/01/03 13:44:11;;;;;;;3.70;1.45;;;;;;;;;;6074445;29;20107;-71
2021/01/03 13:47:13;;;;;;;3.83;1.42;;;;;;;;;;6074411;29;20890;-70
2021/01/03 13:50:14;;;;;;;4.45;1.27;;;;;;;;;;6071192;29;20053;-70
2021/01/03 13:53:15;;;;;;;4.75;1.20;;;;;;;;;;6077419;29;20496;-73
2021/01/03 13:56:16;;;;;;;1.98;1.15;;;;;;;;;;6076506;29;20147;-71
2021/01/03 13:59:17;;;;;;;1.70;0.93;;;;;;;;;;6070484;29;20060;-71
2021/01/03 14:02:19;;;;;;;1.55;0.73;;;;;;;;;;6073825;29;20048;-71
2021/01/03 14:05:22;;;;;;;2.15;1.05;;;;;;;;;;6070494;29;20149;-70
2021/01/03 14:08:23;;;;;;;2.97;1.30;;;;;;;;;;6074365;29;20143;-75
2021/01/03 14:11:25;;;;;;;2.40;1.13;;;;;;;;;;6071059;29;20866;-73
2021/01/03 14:14:27;;;;;;;2.67;1.13;;;;;;;;;;6076354;29;20502;-77
2021/01/03 14:17:29;;;;;;;1.08;0.90;;;;;;;;;;6078114;29;20385;-70
2021/01/03 14:20:30;;;;;;;4.13;1.08;;;;;;;;;;6084427;29;20131;-70
2021/01/03 14:23:31;;;;;;;1.73;0.98;;;;;;;;;;6076141;29;20052;-69
2021/01/03 14:26:34;;;;;;;3.38;0.98;;;;;;;;;;6075553;29;20135;-74
2021/01/03 14:29:35;;;;;;;1.50;0.73;;;;;;;;;;6078528;29;20052;-70
2021/01/03 14:32:37;;;;;;;2.20;0.60;;;;;;;;;;6078328;29;20101;-72
2021/01/03 14:35:41;;;;;;;1.50;0.68;;;;;;;;;;6066514;29;20466;-71
2021/01/03 14:38:42;;;;;;;;;;;;;;;;;;6078718;29;20055;-72
2021/01/03 14:41:43;;;;;;;3.38;0.70;;;;;;;;;;5735723;29;10000305;-70
2021/01/03 14:44:51;;;;;;;1.20;0.77;;;;;;;;;;6085289;29;20467;-72
2021/01/03 14:48:01;;;;;;;1.02;0.50;;;;;;;;;;6076626;29;20055;-71
2021/01/03 14:51:05;;;;;;;2.35;0.60;;;;;;;;;;6072780;29;20064;-68
2021/01/03 14:54:16;;;;;;;2.78;0.85;;;;;;;;;;6071548;29;20140;-70
2021/01/03 14:57:22;;;;;;;1.52;0.60;;;;;;;;;;6081135;29;20060;-70
2021/01/03 15:00:23;;;;;;;1.63;0.70;;;;;;;;;;5743685;29;9999805;-76
2021/01/03 15:03:53;;;;;;;1.73;1.35;;;;;;;;;;6070377;29;20087;-71
2021/01/03 15:07:00;;;;;;;3.47;1.40;;;;;;;;;;6077793;29;20050;-72
2021/01/03 15:10:06;;;;;;;1.98;1.20;;;;;;;;;;6077855;29;20044;-73
2021/01/03 15:13:07;;;;;;;3.30;1.60;;;;;;;;;;6077621;29;20139;-71
2021/01/03 15:16:11;;;;;;;3.47;1.75;;;;;;;;;;6063422;29;20414;-70
2021/01/03 15:19:22;;;;;;;3.80;1.90;;;;;;;;;;6068914;29;20052;-73
2021/01/03 15:22:27;;;;;;;3.20;1.85;;;;;;;;;;6073792;29;20048;-71
2021/01/03 15:25:34;;;;;;;4.88;2.30;;;;;;;;;;6072831;29;20424;-70
2021/01/03 15:28:38;;;;;;;5.80;2.05;;;;;;;;;;6072943;29;20076;-71
2021/01/03 15:31:41;;;;;;;5.07;2.35;;;;;;;;;;6068563;29;20197;-69
2021/01/03 15:34:45;;;;;;;4.68;2.10;;;;;;;;;;6072154;29;20428;-70
2021/01/03 15:37:48;;;;;;;;;;;;;;;;;;6070295;29;20428;-70
2021/01/03 15:40:53;;;;;;;4.47;2.30;;;;;;;;;;6071722;29;19923;-70
2021/01/03 15:44:00;;;;;;;3.97;2.00;;;;;;;;;;6069791;29;20052;-71
2021/01/03 15:47:06;;;;;;;4.43;2.58;;;;;;;;;;6058670;29;20052;-70
2021/01/03 15:50:10;;;;;;;5.18;2.22;;;;;;;;;;6068720;29;20164;-71
2021/01/03 15:53:12;;;;;;;5.35;2.47;;;;;;;;;;5392003;29;10000810;-73
2021/01/03 15:56:16;;;;;;;4.45;2.55;;;;;;;;;;6075013;29;20393;-73
2021/01/03 15:59:17;;;;;;;3.17;2.30;;;;;;;;;;6071845;29;20085;-72
2021/01/03 16:02:18;;;;;;;4.45;3.10;;;;;;;;;;6066747;29;20527;-71
2021/01/03 16:05:21;;;;;;;7.15;3.60;;;;;;;;;;6073673;29;20411;-70
2021/01/03 16:08:22;;;;;;;6.65;3.97;;;;;;;;;;6051761;29;20044;-71
2021/01/03 16:11:23;;;;;;;7.10;3.75;;;;;;;;;;6071211;29;20052;-73
2021/01/03 16:14:25;;;;;;;7.32;4.60;;;;;;;;;;6068410;29;20049;-70
2021/01/03 16:17:26;;;;;;;8.52;4.07;;;;;;;;;;6060211;29;20132;-71
2021/01/03 16:20:28;;;;;;;7.85;4.28;;;;;;;;;;6074782;29;20045;-70
2021/01/03 16:23:44;;;;;;;9.30;5.53;;;;;;;;;;6071742;29;20040;-72
2021/01/03 16:26:49;;;;;;;7.82;5.93;;;;;;;;;;6076510;29;20052;-72
2021/01/03 16:29:55;;;;;;;10.77;6.07;;;;;;;;;;6074384;29;20444;-71
2021/01/03 16:33:03;;;;;;;8.48;5.90;;;;;;;;;;6069088;29;20754;-71
2021/01/03 16:36:14;;;;;;;10.95;5.80;;;;;;;;;;6067716;29;20498;-71
2021/01/03 16:39:27;;;;;;;9.23;5.22;;;;;;;;;;6076450;29;20136;-70
2021/01/03 16:42:42;;;;;;;9.98;5.72;;;;;;;;;;6068777;29;20059;-71
2021/01/03 16:45:47;;;;;;;9.32;6.95;;;;;;;;;;6067909;29;20135;-73
2021/01/03 16:49:14;;;;;;;13.20;7.30;;;;;;;;;;6065095;29;20054;-71
2021/01/03 16:52:25;;;;;;;11.73;6.90;;;;;;;;;;6069741;29;20080;-71
2021/01/03 16:55:28;;;;;;;10.25;6.63;;;;;;;;;;6070292;29;20053;-70
2021/01/03 16:59:03;;;;;;;12.77;6.18;;;;;;;;;;6068318;29;20078;-71
2021/01/03 17:02:08;;;;;;;9.90;6.40;;;;;;;;;;6032244;29;20124;-72
2021/01/03 17:05:12;;;;;;;11.00;6.90;;;;;;;;;;6063334;29;20739;-70
2021/01/03 17:08:18;;;;;;;9.82;6.93;;;;;;;;;;6069897;29;20056;-70
2021/01/03 17:11:20;;;;;;;11.32;7.00;;;;;;;;;;6052963;29;20065;-71
2021/01/03 17:14:30;;;;;;;13.48;9.07;;;;;;;;;;6068999;29;20059;-72
2021/01/03 17:17:36;;;;;;;9.45;7.13;;;;;;;;;;6080343;29;20135;-70
2021/01/03 17:20:41;;;;;;;13.80;9.18;;;;;;;;;;6066045;29;20148;-71
2021/01/03 17:23:48;;;;;;;11.95;8.43;;;;;;;;;;6066722;29;20049;-71
2021/01/03 17:26:58;;;;;;;14.07;8.98;;;;;;;;;;6069054;29;20064;-72
2021/01/03 17:30:05;;;;;;;11.07;8.13;;;;;;;;;;6068496;29;20049;-71
2021/01/03 17:33:20;;;;;;;13.13;9.25;;;;;;;;;;6067526;29;20488;-70
2021/01/03 17:36:46;;;;;;;15.00;9.20;;;;;;;;;;6070944;29;20056;-70
2021/01/03 17:39:52;;;;;;;15.52;9.93;;;;;;;;;;6071797;29;20080;-71
2021/01/03 17:42:56;;;;;;;14.05;9.98;;;;;;;;;;6073969;29;20133;-72
2021/01/03 17:45:57;;;;;;;14.07;10.02;;;;;;;;;;6076886;29;20052;-72
2021/01/03 17:49:02;;;;;;;14.45;9.68;;;;;;;;;;6072033;29;20048;-74
2021/01/03 17:52:04;;;;;;;13.48;9.95;;;;;;;;;;6070283;29;20079;-72
2021/01/03 17:55:08;;;;;;;17.30;10.60;;;;;;;;;;6071833;29;20045;-71
2021/01/03 17:58:10;;;;;;;13.35;10.50;;;;;;;;;;6070113;29;20580;-73
2021/01/03 18:01:11;;;;;;;14.55;10.57;;;;;;;;;;6068114;29;20055;-72
2021/01/03 18:04:12;;;;;;;17.17;11.52;;;;;;;;;;6067209;29;20053;-70
2021/01/03 18:07:13;;;;;;;15.02;11.30;;;;;;;;;;6073314;29;20147;-70